Time,TemperatureF,DewpointF,PressureIn,WindDirection,WindDirectionDegrees,WindSpeedMPH,WindSpeedGustMPH,Humidity,HourlyPrecipIn,Conditions,Clouds,dailyrainin,SoftwareType,DateUTC
2013-05-09 00:00:00,60.6,60.3,30.06,West,270,0.0,0.0,99,0.00,,,0.00,pywws,2013-05-09 04:00:00,
2013-05-09 00:01:00,60.8,60.2,30.07,West,270,0.0,0.0,98,0.00,,,0.00,pywws,2013-05-09 04:01:00,
2013-05-09 00:02:00,60.6,60.3,30.07,West,270,0.0,0.0,99,0.00,,,0.00,pywws,2013-05-09 04:02:00,
2013-05-09 00:03:00,60.6,60.3,30.07,South,180,0.0,0.0,99,0.00,,,0.00,pywws,2013-05-09 04:03:00,
2013-05-09 00:08:00,60.6,60.3,30.07,West,270,0.0,0.0,99,0.00,,,0.00,pywws,2013-05-09 04:08:00,
2013-05-09 00:11:00,60.6,60.3,30.07,North,0,0.0,0.0,99,0.00,,,0.00,pywws,2013-05-09 04:11:00,
2013-05-09 00:16:00,60.6,60.3,30.06,West,270,0.0,0.0,99,0.00,,,0.00,pywws,2013-05-09 04:16:00,
2013-05-09 00:22:00,60.6,60.3,30.07,North,0,0.0,0.0,99,0.00,,,0.00,pywws,2013-05-09 04:22:00,
2013-05-09 00:27:00,60.6,60.3,30.07,West,270,0.0,0.0,99,0.00,,,0.00,pywws,2013-05-09 04:27:00,
2013-05-09 00:35:00,60.4,60.2,30.07,West,270,0.0,0.0,99,0.00,,,0.00,pywws,2013-05-09 04:35:00,
2013-05-09 00:41:00,60.4,60.2,30.06,West,270,0.0,0.0,99,0.00,,,0.00,pywws,2013-05-09 04:41:00,
2013-05-09 00:47:00,60.4,60.2,30.06,West,270,0.0,0.0,99,0.00,,,0.00,pywws,2013-05-09 04:47:00,
2013-05-09 00:58:00,60.4,60.2,30.06,West,270,0.0,0.0,99,0.00,,,0.00,pywws,2013-05-09 04:58:00,
2013-05-09 01:03:00,60.3,60.0,30.06,West,270,0.0,0.0,99,0.00,,,0.00,pywws,2013-05-09 05:03:00,
2013-05-09 01:09:00,60.3,60.0,30.05,West,270,0.0,0.0,99,0.00,,,0.00,pywws,2013-05-09 05:09:00,
2013-05-09 01:15:00,60.3,60.0,30.05,West,270,0.0,0.0,99,0.00,,,0.00,pywws,2013-05-09 05:15:00,
2013-05-09 01:21:00,60.3,60.0,30.05,West,270,0.0,0.0,99,0.00,,,0.00,pywws,2013-05-09 05:21:00,
2013-05-09 01:27:00,60.1,59.8,30.05,West,270,0.0,0.0,99,0.00,,,0.00,pywws,2013-05-09 05:27:00,
2013-05-09 01:34:00,60.1,59.8,30.04,West,270,0.0,0.0,99,0.00,,,0.00,pywws,2013-05-09 05:34:00,
2013-05-09 01:41:00,59.9,59.6,30.04,West,270,0.0,0.0,99,0.00,,,0.00,pywws,2013-05-09 05:41:00,
2013-05-09 01:47:00,59.9,59.6,30.04,West,270,0.0,0.0,99,0.00,,,0.00,pywws,2013-05-09 05:47:00,
2013-05-09 01:53:00,59.9,59.6,30.04,West,270,0.0,0.0,99,0.00,,,0.00,pywws,2013-05-09 05:53:00,
2013-05-09 02:00:00,60.1,59.8,30.04,West,270,0.0,0.0,99,0.00,,,0.00,pywws,2013-05-09 06:00:00,
2013-05-09 02:06:00,60.1,59.8,30.03,West,270,0.0,0.0,99,0.00,,,0.00,pywws,2013-05-09 06:06:00,
2013-05-09 02:12:00,60.1,59.8,30.03,West,270,0.0,0.0,99,0.00,,,0.00,pywws,2013-05-09 06:12:00,
2013-05-09 02:18:00,60.1,59.8,30.03,West,270,0.0,0.0,99,0.00,,,0.00,pywws,2013-05-09 06:18:00,
2013-05-09 02:24:00,59.9,59.6,30.03,West,270,0.0,0.0,99,0.00,,,0.00,pywws,2013-05-09 06:24:00,
2013-05-09 02:31:00,59.9,59.6,30.03,West,270,0.0,0.0,99,0.00,,,0.00,pywws,2013-05-09 06:31:00,
2013-05-09 02:38:00,59.9,59.6,30.02,West,270,0.0,0.0,99,0.00,,,0.00,pywws,2013-05-09 06:38:00,
2013-05-09 02:43:00,59.9,59.6,30.02,West,270,0.0,0.0,99,0.00,,,0.00,pywws,2013-05-09 06:43:00,
2013-05-09 02:49:00,59.7,59.4,30.03,West,270,0.0,0.0,99,0.00,,,0.00,pywws,2013-05-09 06:49:00,
2013-05-09 02:55:00,59.7,59.4,30.02,West,270,0.0,0.0,99,0.00,,,0.00,pywws,2013-05-09 06:55:00,
2013-05-09 03:02:00,59.5,59.3,30.03,West,270,0.0,0.0,99,0.00,,,0.00,pywws,2013-05-09 07:02:00,
2013-05-09 03:08:00,59.2,58.9,30.03,West,270,0.0,0.0,99,0.00,,,0.00,pywws,2013-05-09 07:08:00,
2013-05-09 03:14:00,59.2,58.9,30.03,West,270,0.0,0.0,99,0.00,,,0.00,pywws,2013-05-09 07:14:00,
2013-05-09 03:19:00,59.2,58.9,30.02,West,270,0.0,0.0,99,0.00,,,0.00,pywws,2013-05-09 07:19:00,
2013-05-09 03:26:00,59.4,59.1,30.02,West,270,0.0,0.0,99,0.00,,,0.00,pywws,2013-05-09 07:26:00,
2013-05-09 03:31:00,59.4,59.1,30.03,West,270,0.0,0.0,99,0.00,,,0.00,pywws,2013-05-09 07:31:00,
2013-05-09 03:37:00,59.0,58.7,30.02,West,270,0.0,0.0,99,0.00,,,0.00,pywws,2013-05-09 07:37:00,
2013-05-09 03:43:00,58.5,58.2,30.02,West,270,0.0,0.0,99,0.00,,,0.00,pywws,2013-05-09 07:43:00,
2013-05-09 03:49:00,57.7,57.5,30.01,West,270,0.0,0.0,99,0.00,,,0.00,pywws,2013-05-09 07:49:00,
2013-05-09 03:55:00,57.9,57.6,30.01,West,270,0.0,0.0,99,0.00,,,0.00,pywws,2013-05-09 07:55:00,
2013-05-09 04:01:00,57.7,57.5,30.01,West,270,0.0,0.0,99,0.00,,,0.00,pywws,2013-05-09 08:01:00,
2013-05-09 04:07:00,57.2,56.9,30.01,West,270,0.0,0.0,99,0.00,,,0.00,pywws,2013-05-09 08:07:00,
2013-05-09 04:12:00,56.7,56.4,30.01,West,270,0.0,0.0,99,0.00,,,0.00,pywws,2013-05-09 08:12:00,
2013-05-09 04:18:00,56.3,56.0,30.00,West,270,0.0,0.0,99,0.00,,,0.00,pywws,2013-05-09 08:18:00,
2013-05-09 04:23:00,55.8,55.5,30.00,West,270,0.0,0.0,99,0.00,,,0.00,pywws,2013-05-09 08:23:00,
2013-05-09 04:29:00,55.8,55.5,30.00,West,270,0.0,0.0,99,0.00,,,0.00,pywws,2013-05-09 08:29:00,
2013-05-09 04:35:00,55.9,55.7,30.00,West,270,0.0,0.0,99,0.00,,,0.00,pywws,2013-05-09 08:35:00,
2013-05-09 04:43:00,55.8,55.5,30.00,West,270,0.0,0.0,99,0.00,,,0.00,pywws,2013-05-09 08:43:00,
2013-05-09 04:49:00,55.2,54.4,30.00,West,270,0.0,0.0,97,0.00,,,0.00,pywws,2013-05-09 08:49:00,
2013-05-09 04:55:00,55.6,55.3,30.01,West,270,0.0,0.0,99,0.00,,,0.00,pywws,2013-05-09 08:55:00,
2013-05-09 05:00:00,55.8,55.5,30.01,West,270,0.0,0.0,99,0.00,,,0.00,pywws,2013-05-09 09:00:00,
2013-05-09 05:06:00,56.1,55.8,30.01,West,270,0.0,0.0,99,0.00,,,0.00,pywws,2013-05-09 09:06:00,
2013-05-09 05:11:00,56.3,56.0,30.00,West,270,0.0,0.0,99,0.00,,,0.00,pywws,2013-05-09 09:11:00,
2013-05-09 05:18:00,56.8,56.6,30.00,North,0,0.0,0.0,99,0.00,,,0.00,pywws,2013-05-09 09:18:00,
2013-05-09 05:23:00,57.0,56.7,30.01,North,0,0.0,0.0,99,0.00,,,0.00,pywws,2013-05-09 09:23:00,
2013-05-09 05:31:00,57.2,56.9,30.00,North,0,0.0,0.0,99,0.00,,,0.00,pywws,2013-05-09 09:31:00,
2013-05-09 05:36:00,57.4,57.1,30.00,North,0,0.0,0.0,99,0.00,,,0.00,pywws,2013-05-09 09:36:00,
2013-05-09 05:42:00,57.2,56.9,30.01,East,90,0.0,0.0,99,0.00,,,0.00,pywws,2013-05-09 09:42:00,
2013-05-09 05:47:00,57.2,56.9,30.00,West,270,0.0,0.0,99,0.00,,,0.00,pywws,2013-05-09 09:47:00,
2013-05-09 05:54:00,57.2,56.9,30.01,West,270,0.0,0.0,99,0.00,,,0.00,pywws,2013-05-09 09:54:00,
2013-05-09 05:59:00,57.4,57.1,30.01,West,270,0.0,0.0,99,0.00,,,0.00,pywws,2013-05-09 09:59:00,
2013-05-09 06:05:00,57.6,57.3,30.01,NW,315,0.0,0.0,99,0.00,,,0.00,pywws,2013-05-09 10:05:00,
2013-05-09 06:11:00,57.9,57.6,30.01,NW,315,0.0,0.0,99,0.00,,,0.00,pywws,2013-05-09 10:11:00,
2013-05-09 06:17:00,57.9,57.6,30.00,North,0,0.0,0.0,99,0.00,,,0.00,pywws,2013-05-09 10:17:00,
2013-05-09 06:23:00,58.3,58.0,30.00,North,0,0.0,0.0,99,0.00,,,0.00,pywws,2013-05-09 10:23:00,
2013-05-09 06:28:00,58.3,58.0,30.00,NW,315,0.0,0.0,99,0.00,,,0.00,pywws,2013-05-09 10:28:00,
2013-05-09 06:34:00,58.5,58.2,30.00,North,0,0.0,0.0,99,0.00,,,0.00,pywws,2013-05-09 10:34:00,
2013-05-09 06:39:00,58.1,57.8,30.01,North,0,0.0,0.0,99,0.00,,,0.00,pywws,2013-05-09 10:39:00,
2013-05-09 06:45:00,58.3,58.0,30.01,North,0,0.0,0.0,99,0.00,,,0.00,pywws,2013-05-09 10:45:00,
2013-05-09 06:51:00,58.6,58.4,30.01,North,0,0.0,0.0,99,0.00,,,0.00,pywws,2013-05-09 10:51:00,
2013-05-09 06:56:00,58.8,58.5,30.01,North,0,0.0,0.0,99,0.00,,,0.00,pywws,2013-05-09 10:56:00,
2013-05-09 07:03:00,58.5,58.2,30.01,North,0,0.0,0.0,99,0.00,,,0.00,pywws,2013-05-09 11:03:00,
2013-05-09 07:09:00,58.1,57.8,30.01,North,0,0.0,0.0,99,0.00,,,0.00,pywws,2013-05-09 11:09:00,
2013-05-09 07:15:00,58.5,58.2,30.01,North,0,0.0,0.0,99,0.00,,,0.00,pywws,2013-05-09 11:15:00,
2013-05-09 07:21:00,58.8,58.5,30.02,North,0,0.0,0.0,99,0.00,,,0.00,pywws,2013-05-09 11:21:00,
2013-05-09 07:27:00,58.8,58.5,30.02,North,0,0.0,0.0,99,0.00,,,0.00,pywws,2013-05-09 11:27:00,
2013-05-09 07:32:00,58.3,58.0,30.01,North,0,0.0,0.0,99,0.00,,,0.00,pywws,2013-05-09 11:32:00,
2013-05-09 07:38:00,58.3,58.0,30.02,North,0,0.0,0.0,99,0.00,,,0.00,pywws,2013-05-09 11:38:00,
2013-05-09 07:43:00,58.6,58.4,30.02,North,0,0.0,0.0,99,0.00,,,0.00,pywws,2013-05-09 11:43:00,
2013-05-09 07:50:00,58.5,58.2,30.02,North,0,0.0,0.0,99,0.00,,,0.00,pywws,2013-05-09 11:50:00,
2013-05-09 07:55:00,58.5,58.2,30.02,North,0,0.0,0.0,99,0.00,,,0.00,pywws,2013-05-09 11:55:00,
2013-05-09 08:01:00,58.6,58.4,30.02,North,0,0.0,0.0,99,0.00,,,0.00,pywws,2013-05-09 12:01:00,
2013-05-09 08:07:00,59.0,58.7,30.01,North,0,0.0,0.0,99,0.00,,,0.00,pywws,2013-05-09 12:07:00,
2013-05-09 08:13:00,59.5,59.3,30.02,North,0,0.0,0.0,99,0.00,,,0.00,pywws,2013-05-09 12:13:00,
2013-05-09 08:19:00,59.2,58.9,30.02,North,0,0.0,0.0,99,0.00,,,0.00,pywws,2013-05-09 12:19:00,
2013-05-09 08:24:00,59.5,59.3,30.02,North,0,0.0,0.0,99,0.01,,,0.01,pywws,2013-05-09 12:24:00,
2013-05-09 08:30:00,60.1,59.8,30.01,North,0,0.0,0.0,99,0.01,,,0.01,pywws,2013-05-09 12:30:00,
2013-05-09 08:35:00,60.3,60.0,30.02,North,0,0.0,0.0,99,0.01,,,0.01,pywws,2013-05-09 12:35:00,
2013-05-09 08:41:00,59.9,59.6,30.02,North,0,0.0,0.0,99,0.01,,,0.01,pywws,2013-05-09 12:41:00,
2013-05-09 08:47:00,59.7,59.4,30.01,North,0,0.0,0.0,99,0.01,,,0.01,pywws,2013-05-09 12:47:00,
2013-05-09 08:52:00,60.6,60.3,30.01,West,270,0.0,0.0,99,0.01,,,0.01,pywws,2013-05-09 12:52:00,
2013-05-09 08:58:00,60.6,60.3,30.01,West,270,0.0,0.0,99,0.01,,,0.01,pywws,2013-05-09 12:58:00,
2013-05-09 09:03:00,61.2,60.6,30.01,West,270,0.0,0.0,98,0.01,,,0.01,pywws,2013-05-09 13:03:00,
2013-05-09 09:09:00,61.0,60.1,30.01,North,0,0.0,0.0,97,0.01,,,0.01,pywws,2013-05-09 13:09:00,
2013-05-09 09:15:00,60.8,59.7,30.01,North,0,0.0,0.0,96,0.01,,,0.01,pywws,2013-05-09 13:15:00,
2013-05-09 09:20:00,61.3,59.6,30.01,North,0,0.0,0.0,94,0.01,,,0.01,pywws,2013-05-09 13:20:00,
2013-05-09 09:26:00,61.2,59.1,30.01,North,0,0.0,0.0,93,0.00,,,0.01,pywws,2013-05-09 13:26:00,
2013-05-09 09:31:00,61.3,59.0,30.01,North,0,0.0,0.0,92,0.00,,,0.01,pywws,2013-05-09 13:31:00,
2013-05-09 09:37:00,61.3,59.0,30.01,North,0,0.0,0.0,92,0.00,,,0.01,pywws,2013-05-09 13:37:00,
2013-05-09 09:43:00,61.7,59.3,30.01,North,0,0.0,0.0,92,0.00,,,0.01,pywws,2013-05-09 13:43:00,
2013-05-09 09:48:00,61.5,58.9,30.01,North,0,0.0,0.0,91,0.00,,,0.01,pywws,2013-05-09 13:48:00,
2013-05-09 09:54:00,61.7,59.0,30.01,North,0,0.0,0.0,91,0.00,,,0.01,pywws,2013-05-09 13:54:00,
2013-05-09 09:59:00,61.5,58.9,30.00,West,270,0.0,0.0,91,0.00,,,0.01,pywws,2013-05-09 13:59:00,
2013-05-09 10:05:00,63.5,60.5,30.00,West,270,0.0,0.0,90,0.00,,,0.01,pywws,2013-05-09 14:05:00,
2013-05-09 10:11:00,62.6,59.0,30.00,NE,45,0.0,0.0,88,0.00,,,0.01,pywws,2013-05-09 14:11:00,
2013-05-09 10:16:00,62.6,58.3,30.00,North,0,0.0,0.0,86,0.00,,,0.01,pywws,2013-05-09 14:16:00,
2013-05-09 10:22:00,63.0,58.7,30.00,North,0,0.0,0.0,86,0.00,,,0.01,pywws,2013-05-09 14:22:00,
2013-05-09 10:27:00,63.5,59.2,30.00,North,0,0.0,0.0,86,0.00,,,0.01,pywws,2013-05-09 14:27:00,
2013-05-09 10:33:00,63.7,59.1,30.01,NW,315,0.0,0.0,85,0.00,,,0.01,pywws,2013-05-09 14:33:00,
2013-05-09 10:39:00,63.1,58.6,30.00,North,0,0.0,0.0,85,0.00,,,0.01,pywws,2013-05-09 14:39:00,
2013-05-09 10:45:00,63.3,59.1,30.00,East,90,0.0,0.0,86,0.00,,,0.01,pywws,2013-05-09 14:45:00,
2013-05-09 10:51:00,63.5,59.2,30.01,North,0,0.0,0.0,86,0.00,,,0.01,pywws,2013-05-09 14:51:00,
2013-05-09 10:56:00,63.7,58.8,30.01,North,0,0.0,0.0,84,0.00,,,0.01,pywws,2013-05-09 14:56:00,
2013-05-09 11:02:00,63.5,59.2,30.01,North,0,0.0,0.0,86,0.00,,,0.01,pywws,2013-05-09 15:02:00,
2013-05-09 11:07:00,63.5,59.2,30.01,West,270,0.0,0.0,86,0.00,,,0.01,pywws,2013-05-09 15:07:00,
2013-05-09 11:13:00,63.0,58.7,30.01,South,180,0.0,0.0,86,0.01,,,0.02,pywws,2013-05-09 15:13:00,
2013-05-09 11:19:00,63.3,59.4,30.01,South,180,0.0,0.0,87,0.01,,,0.02,pywws,2013-05-09 15:19:00,
2013-05-09 11:24:00,63.0,59.0,30.01,South,180,0.0,0.0,87,0.02,,,0.04,pywws,2013-05-09 15:24:00,
2013-05-09 11:30:00,62.4,59.1,30.01,South,180,0.0,0.0,89,0.02,,,0.04,pywws,2013-05-09 15:30:00,
2013-05-09 11:35:00,62.4,58.8,30.00,West,270,0.0,0.0,88,0.02,,,0.04,pywws,2013-05-09 15:35:00,
2013-05-09 11:41:00,63.1,59.5,30.01,West,270,0.0,0.0,88,0.02,,,0.04,pywws,2013-05-09 15:41:00,
2013-05-09 11:47:00,62.8,59.2,30.01,West,270,0.0,0.0,88,0.04,,,0.05,pywws,2013-05-09 15:47:00,
2013-05-09 11:52:00,62.8,59.2,30.00,West,270,0.0,0.0,88,0.04,,,0.05,pywws,2013-05-09 15:52:00,
2013-05-09 11:58:00,62.4,58.8,29.99,North,0,0.0,0.0,88,0.04,,,0.05,pywws,2013-05-09 15:58:00,
2013-05-09 12:03:00,61.9,58.3,29.99,West,270,0.0,0.0,88,0.04,,,0.05,pywws,2013-05-09 16:03:00,
2013-05-09 12:09:00,61.7,58.7,29.98,West,270,0.0,0.0,90,0.02,,,0.05,pywws,2013-05-09 16:09:00,
2013-05-09 12:15:00,61.3,58.4,29.99,North,0,0.0,0.0,90,0.02,,,0.05,pywws,2013-05-09 16:15:00,
2013-05-09 12:21:00,61.7,59.0,29.99,West,270,0.0,0.0,91,0.01,,,0.05,pywws,2013-05-09 16:21:00,
2013-05-09 12:27:00,61.7,59.3,29.99,West,270,0.0,0.0,92,0.01,,,0.05,pywws,2013-05-09 16:27:00,
2013-05-09 12:32:00,61.5,59.2,29.99,North,0,0.0,0.0,92,0.01,,,0.05,pywws,2013-05-09 16:32:00,
2013-05-09 12:40:00,61.5,59.2,29.99,North,0,0.0,0.0,92,0.02,,,0.06,pywws,2013-05-09 16:40:00,
2013-05-09 12:46:00,61.7,59.3,29.99,West,270,0.0,0.0,92,0.02,,,0.06,pywws,2013-05-09 16:46:00,
2013-05-09 12:51:00,62.2,59.9,29.98,West,270,0.0,0.0,92,0.01,,,0.06,pywws,2013-05-09 16:51:00,
2013-05-09 12:57:00,62.8,60.4,29.98,West,270,0.0,0.0,92,0.01,,,0.06,pywws,2013-05-09 16:57:00,
2013-05-09 13:03:00,62.4,60.1,29.98,West,270,0.0,0.0,92,0.01,,,0.06,pywws,2013-05-09 17:03:00,
2013-05-09 13:08:00,64.9,62.2,29.99,West,270,0.0,0.0,91,0.01,,,0.06,pywws,2013-05-09 17:08:00,
2013-05-09 13:14:00,66.6,63.2,29.98,West,270,0.0,0.0,89,0.01,,,0.06,pywws,2013-05-09 17:14:00,
2013-05-09 13:19:00,66.9,62.6,29.98,West,270,0.0,0.0,86,0.01,,,0.06,pywws,2013-05-09 17:19:00,
2013-05-09 13:25:00,67.6,61.9,29.98,NE,45,0.0,0.7,82,0.01,,,0.06,pywws,2013-05-09 17:25:00,
2013-05-09 13:31:00,66.0,59.3,29.97,East,90,0.0,0.0,79,0.01,,,0.06,pywws,2013-05-09 17:31:00,
2013-05-09 13:36:00,66.9,60.9,29.96,SW,225,0.0,0.0,81,0.01,,,0.06,pywws,2013-05-09 17:36:00,
2013-05-09 13:42:00,67.8,60.7,29.96,North,0,0.0,0.0,78,0.00,,,0.06,pywws,2013-05-09 17:42:00,
2013-05-09 13:47:00,67.8,60.7,29.96,West,270,0.0,0.0,78,0.00,,,0.06,pywws,2013-05-09 17:47:00,
2013-05-09 13:53:00,67.5,60.4,29.96,North,0,0.0,0.0,78,0.00,,,0.06,pywws,2013-05-09 17:53:00,
2013-05-09 13:59:00,66.9,59.5,29.96,North,0,0.0,0.0,77,0.00,,,0.06,pywws,2013-05-09 17:59:00,
2013-05-09 14:05:00,73.4,65.4,29.96,East,90,0.0,0.0,76,0.00,,,0.06,pywws,2013-05-09 18:05:00,
2013-05-09 14:11:00,73.2,62.0,29.96,East,90,0.0,0.0,68,0.00,,,0.06,pywws,2013-05-09 18:11:00,
2013-05-09 14:16:00,72.9,60.0,29.96,South,180,0.0,0.0,64,0.00,,,0.06,pywws,2013-05-09 18:16:00,
2013-05-09 14:22:00,71.4,57.7,29.95,West,270,0.0,0.0,62,0.00,,,0.06,pywws,2013-05-09 18:22:00,
2013-05-09 14:27:00,71.2,58.9,29.95,South,180,0.0,0.0,65,0.00,,,0.06,pywws,2013-05-09 18:27:00,
2013-05-09 14:33:00,69.8,57.1,29.95,North,0,0.0,0.0,64,0.00,,,0.06,pywws,2013-05-09 18:33:00,
2013-05-09 14:39:00,72.0,59.5,29.94,West,270,0.0,0.0,65,0.00,,,0.06,pywws,2013-05-09 18:39:00,
2013-05-09 14:44:00,71.8,59.8,29.95,West,270,0.0,0.0,66,0.00,,,0.06,pywws,2013-05-09 18:44:00,
2013-05-09 14:50:00,69.4,57.2,29.95,East,90,0.0,0.0,65,0.00,,,0.06,pywws,2013-05-09 18:50:00,
2013-05-09 14:55:00,68.4,57.0,29.94,North,0,0.0,0.0,67,0.00,,,0.06,pywws,2013-05-09 18:55:00,
2013-05-09 15:01:00,67.6,56.7,29.94,North,0,0.0,0.0,68,0.00,,,0.06,pywws,2013-05-09 19:01:00,
2013-05-09 15:07:00,67.3,57.5,29.94,NW,315,0.0,0.0,71,0.00,,,0.06,pywws,2013-05-09 19:07:00,
2013-05-09 15:12:00,68.2,58.8,29.93,North,0,0.0,0.0,72,0.00,,,0.06,pywws,2013-05-09 19:12:00,
2013-05-09 15:18:00,68.2,58.4,29.93,North,0,0.0,0.0,71,0.00,,,0.06,pywws,2013-05-09 19:18:00,
2013-05-09 15:23:00,67.8,57.3,29.92,East,90,0.0,0.0,69,0.00,,,0.06,pywws,2013-05-09 19:23:00,
2013-05-09 15:29:00,67.1,57.4,29.92,North,0,0.0,0.0,71,0.00,,,0.06,pywws,2013-05-09 19:29:00,
2013-05-09 15:35:00,66.4,57.1,29.92,SW,225,0.0,0.0,72,0.00,,,0.06,pywws,2013-05-09 19:35:00,
2013-05-09 15:40:00,65.1,57.4,29.92,West,270,0.0,0.0,76,0.00,,,0.06,pywws,2013-05-09 19:40:00,
2013-05-09 15:46:00,63.9,57.9,29.93,East,90,0.0,0.0,81,0.01,,,0.07,pywws,2013-05-09 19:46:00,
2013-05-09 15:51:00,62.8,57.5,29.93,West,270,0.0,0.0,83,0.01,,,0.07,pywws,2013-05-09 19:51:00,
2013-05-09 15:57:00,62.2,58.0,29.93,West,270,0.0,0.0,86,0.01,,,0.07,pywws,2013-05-09 19:57:00,
2013-05-09 16:03:00,62.4,58.8,29.93,North,0,0.0,0.0,88,0.01,,,0.07,pywws,2013-05-09 20:03:00,
2013-05-09 16:10:00,62.2,59.3,29.93,North,0,0.0,0.0,90,0.01,,,0.07,pywws,2013-05-09 20:10:00,
2013-05-09 16:15:00,62.1,59.4,29.93,North,0,0.0,0.0,91,0.02,,,0.08,pywws,2013-05-09 20:15:00,
2013-05-09 16:21:00,61.5,59.2,29.92,East,90,0.0,0.0,92,0.02,,,0.08,pywws,2013-05-09 20:21:00,
2013-05-09 16:27:00,61.3,59.0,29.92,East,90,0.0,0.0,92,0.02,,,0.08,pywws,2013-05-09 20:27:00,
2013-05-09 16:33:00,61.0,58.6,29.92,North,0,0.0,0.0,92,0.04,,,0.09,pywws,2013-05-09 20:33:00,
2013-05-09 16:39:00,61.0,58.6,29.93,North,0,0.0,0.0,92,0.06,,,0.12,pywws,2013-05-09 20:39:00,
2013-05-09 16:45:00,60.8,58.5,29.93,West,270,0.0,0.0,92,0.11,,,0.18,pywws,2013-05-09 20:45:00,
2013-05-09 16:52:00,61.0,58.9,29.92,North,0,0.0,0.0,93,0.13,,,0.20,pywws,2013-05-09 20:52:00,
2013-05-09 16:58:00,60.6,59.2,29.92,East,90,0.0,0.0,95,0.13,,,0.20,pywws,2013-05-09 20:58:00,
2013-05-09 17:03:00,60.8,59.1,29.92,West,270,0.0,0.0,94,0.14,,,0.21,pywws,2013-05-09 21:03:00,
2013-05-09 17:09:00,61.2,59.4,29.92,West,270,0.0,0.0,94,0.14,,,0.21,pywws,2013-05-09 21:09:00,
2013-05-09 17:15:00,61.3,59.6,29.92,West,270,0.0,0.0,94,0.13,,,0.21,pywws,2013-05-09 21:15:00,
2013-05-09 17:21:00,60.8,59.4,29.92,North,0,0.0,0.0,95,0.13,,,0.21,pywws,2013-05-09 21:21:00,
2013-05-09 17:27:00,60.8,59.4,29.92,North,0,0.0,0.0,95,0.13,,,0.21,pywws,2013-05-09 21:27:00,
2013-05-09 17:32:00,61.0,59.5,29.91,North,0,0.0,0.0,95,0.13,,,0.21,pywws,2013-05-09 21:32:00,
2013-05-09 17:38:00,60.6,59.2,29.91,North,0,0.0,0.0,95,0.12,,,0.21,pywws,2013-05-09 21:38:00,
2013-05-09 17:43:00,60.6,59.2,29.92,North,0,0.0,0.0,95,0.05,,,0.21,pywws,2013-05-09 21:43:00,
2013-05-09 17:49:00,61.0,59.2,29.91,North,0,0.0,0.0,94,0.02,,,0.21,pywws,2013-05-09 21:49:00,
2013-05-09 17:55:00,60.4,59.0,29.91,North,0,0.0,0.0,95,0.01,,,0.21,pywws,2013-05-09 21:55:00,
2013-05-09 18:00:00,60.4,59.0,29.91,North,0,0.0,0.0,95,0.01,,,0.21,pywws,2013-05-09 22:00:00,
2013-05-09 18:06:00,60.4,59.0,29.91,North,0,0.0,0.0,95,0.00,,,0.21,pywws,2013-05-09 22:06:00,
2013-05-09 18:11:00,60.6,59.2,29.91,East,90,0.0,0.0,95,0.00,,,0.21,pywws,2013-05-09 22:11:00,
2013-05-09 18:17:00,61.0,59.2,29.91,North,0,0.0,0.0,94,0.00,,,0.21,pywws,2013-05-09 22:17:00,
2013-05-09 18:24:00,61.0,59.2,29.91,North,0,0.0,0.0,94,0.00,,,0.21,pywws,2013-05-09 22:24:00,
2013-05-09 18:31:00,60.8,59.1,29.91,North,0,0.0,0.0,94,0.00,,,0.21,pywws,2013-05-09 22:31:00,
2013-05-09 18:37:00,61.2,59.4,29.91,North,0,0.0,0.0,94,0.00,,,0.21,pywws,2013-05-09 22:37:00,
2013-05-09 18:43:00,61.0,59.2,29.90,North,0,0.0,0.0,94,0.00,,,0.21,pywws,2013-05-09 22:43:00,
2013-05-09 18:49:00,61.2,59.4,29.91,East,90,0.0,0.0,94,0.00,,,0.21,pywws,2013-05-09 22:49:00,
2013-05-09 18:55:00,61.2,59.4,29.91,North,0,0.0,0.0,94,0.00,,,0.21,pywws,2013-05-09 22:55:00,
2013-05-09 19:00:00,61.3,59.6,29.91,North,0,0.0,0.0,94,0.00,,,0.21,pywws,2013-05-09 23:00:00,
2013-05-09 19:07:00,61.3,59.6,29.91,North,0,0.0,0.7,94,0.00,,,0.21,pywws,2013-05-09 23:07:00,
2013-05-09 19:13:00,61.2,59.4,29.91,South,180,0.0,0.0,94,0.00,,,0.21,pywws,2013-05-09 23:13:00,
2013-05-09 19:20:00,61.0,59.2,29.91,North,0,0.0,0.0,94,0.00,,,0.21,pywws,2013-05-09 23:20:00,
2013-05-09 19:26:00,60.6,59.2,29.91,North,0,0.0,0.0,95,0.00,,,0.21,pywws,2013-05-09 23:26:00,
2013-05-09 19:32:00,60.6,58.9,29.92,North,0,0.0,0.0,94,0.00,,,0.21,pywws,2013-05-09 23:32:00,
2013-05-09 19:38:00,60.1,58.3,29.92,North,0,0.0,0.0,94,0.00,,,0.21,pywws,2013-05-09 23:38:00,
2013-05-09 19:43:00,59.9,58.2,29.92,North,0,0.0,0.0,94,0.00,,,0.21,pywws,2013-05-09 23:43:00,
2013-05-09 19:49:00,59.7,58.0,29.92,North,0,0.0,0.0,94,0.00,,,0.21,pywws,2013-05-09 23:49:00,
2013-05-09 19:55:00,59.7,58.0,29.92,East,90,0.0,0.0,94,0.00,,,0.21,pywws,2013-05-09 23:55:00,
2013-05-09 20:00:00,59.5,57.8,29.91,North,0,0.0,0.0,94,0.00,,,0.21,pywws,2013-05-10 00:00:00,
2013-05-09 20:06:00,59.4,57.6,29.91,North,0,0.0,0.0,94,0.00,,,0.21,pywws,2013-05-10 00:06:00,
2013-05-09 20:11:00,59.4,57.9,29.91,North,0,0.0,0.0,95,0.00,,,0.21,pywws,2013-05-10 00:11:00,
2013-05-09 20:17:00,59.4,57.9,29.91,North,0,0.0,0.0,95,0.00,,,0.21,pywws,2013-05-10 00:17:00,
2013-05-09 20:23:00,59.4,57.9,29.92,North,0,0.0,0.0,95,0.00,,,0.21,pywws,2013-05-10 00:23:00,
2013-05-09 20:28:00,59.2,57.7,29.92,North,0,0.0,0.0,95,0.00,,,0.21,pywws,2013-05-10 00:28:00,
2013-05-09 20:35:00,59.0,57.6,29.92,North,0,0.0,0.0,95,0.00,,,0.21,pywws,2013-05-10 00:35:00,
2013-05-09 20:42:00,58.6,57.5,29.93,North,0,0.0,0.0,96,0.00,,,0.21,pywws,2013-05-10 00:42:00,
2013-05-09 20:47:00,58.5,57.3,29.93,North,0,0.0,0.0,96,0.00,,,0.21,pywws,2013-05-10 00:47:00,
2013-05-09 20:53:00,58.6,57.8,29.93,East,90,0.0,0.0,97,0.00,,,0.21,pywws,2013-05-10 00:53:00,
2013-05-09 20:59:00,58.6,57.8,29.93,East,90,0.0,0.0,97,0.00,,,0.21,pywws,2013-05-10 00:59:00,
2013-05-09 21:04:00,58.8,58.0,29.93,East,90,0.0,0.0,97,0.00,,,0.21,pywws,2013-05-10 01:04:00,
2013-05-09 21:11:00,58.8,58.0,29.93,North,0,0.0,0.0,97,0.00,,,0.21,pywws,2013-05-10 01:11:00,
2013-05-09 21:16:00,58.6,57.8,29.93,North,0,0.0,0.0,97,0.00,,,0.21,pywws,2013-05-10 01:16:00,
2013-05-09 21:23:00,58.5,57.6,29.94,North,0,0.0,0.0,97,0.00,,,0.21,pywws,2013-05-10 01:23:00,
2013-05-09 21:28:00,58.5,57.6,29.93,North,0,0.0,0.0,97,0.00,,,0.21,pywws,2013-05-10 01:28:00,
2013-05-09 21:35:00,58.5,57.6,29.94,North,0,0.0,0.0,97,0.00,,,0.21,pywws,2013-05-10 01:35:00,
2013-05-09 21:43:00,58.5,57.6,29.94,North,0,0.0,0.0,97,0.00,,,0.21,pywws,2013-05-10 01:43:00,
2013-05-09 21:48:00,58.6,57.8,29.94,North,0,0.0,0.0,97,0.00,,,0.21,pywws,2013-05-10 01:48:00,
2013-05-09 21:54:00,58.6,57.8,29.94,North,0,0.0,0.0,97,0.00,,,0.21,pywws,2013-05-10 01:54:00,
2013-05-09 21:59:00,58.6,57.8,29.94,North,0,0.0,0.0,97,0.00,,,0.21,pywws,2013-05-10 01:59:00,
2013-05-09 22:05:00,58.6,57.8,29.94,North,0,0.0,0.0,97,0.00,,,0.21,pywws,2013-05-10 02:05:00,
2013-05-09 22:11:00,58.5,57.6,29.94,North,0,0.0,0.0,97,0.00,,,0.21,pywws,2013-05-10 02:11:00,
2013-05-09 22:16:00,58.6,57.8,29.94,North,0,0.0,0.0,97,0.00,,,0.21,pywws,2013-05-10 02:16:00,
2013-05-09 22:24:00,58.5,57.6,29.94,North,0,0.0,0.0,97,0.00,,,0.21,pywws,2013-05-10 02:24:00,
2013-05-09 22:35:00,58.5,57.6,29.94,North,0,0.0,0.0,97,0.00,,,0.21,pywws,2013-05-10 02:35:00,
2013-05-09 22:41:00,58.5,57.6,29.93,North,0,0.0,0.0,97,0.00,,,0.21,pywws,2013-05-10 02:41:00,
2013-05-09 22:47:00,58.3,57.4,29.93,North,0,0.0,0.0,97,0.00,,,0.21,pywws,2013-05-10 02:47:00,
2013-05-09 23:01:00,58.3,57.4,29.93,North,0,0.0,0.0,97,0.00,,,0.21,pywws,2013-05-10 03:01:00,
2013-05-09 23:07:00,58.1,57.3,29.93,North,0,0.0,0.0,97,0.01,,,0.22,pywws,2013-05-10 03:07:00,
2013-05-09 23:20:00,58.1,57.3,29.93,North,0,0.0,0.0,97,0.01,,,0.22,pywws,2013-05-10 03:20:00,
2013-05-09 23:26:00,58.1,57.3,29.93,North,0,0.0,0.0,97,0.01,,,0.22,pywws,2013-05-10 03:26:00,
2013-05-09 23:32:00,58.1,57.3,29.93,North,0,0.0,0.0,97,0.01,,,0.22,pywws,2013-05-10 03:32:00,
2013-05-09 23:38:00,57.9,57.1,29.93,North,0,0.0,0.0,97,0.01,,,0.22,pywws,2013-05-10 03:38:00,
2013-05-09 23:43:00,57.7,56.9,29.93,NW,315,0.0,0.0,97,0.01,,,0.22,pywws,2013-05-10 03:43:00,
2013-05-09 23:50:00,57.9,57.1,29.93,North,0,0.0,0.0,97,0.01,,,0.22,pywws,2013-05-10 03:50:00,
2013-05-09 23:55:00,57.7,56.9,29.93,North,0,0.0,0.0,97,0.01,,,0.22,pywws,2013-05-10 03:55:00,